Southgate, MI (48195)

01:10 PM EDT on aprilie 26, 2015 (GMT -0400)
Castle and Burns St. | | Change Station
CLOSE
Current Station
Staţie meteo personală
Location: Southgate, MI
Elevation: 580 ft
Nearby Weather Stations

Elev 580 ft 42.21 °N, 83.19 °W | Updated 4 minutes ago

Cer senin
Cer senin
56.0 °F
Feels Like 56.0 °F
N
9.0
Vânt variabil Vânt from NE
Gusts 9.0 mph

astăzi
High -- | Low -- °F
--% Chance of Precip.
Ieri
High -- | Low -- °F
Precip. -- inch
6:35 AM 8:26 PM
Primul pătrar, 57% visible
Presiunea 29.92 inch
Vizibilitatea 10.0 mile
Nori Nori risipiţi 5500 ft
Punctul de rouă 34 °F
Umiditatea 44%
Precipitaţii 0.00 inch
Adâncimea zăpezii Not available.
UV 7.2 out of 12
Pollen 6.70 out of 12
Calitatea aerului Not available.
Flu Activity Regional
METAR KDTW 261653Z 36007KT 10SM SCT055 13/M02 A2992

More Conditions Fewer Conditions

Presiunea 29.92 inch
Vizibilitatea 10.0 mile
Nori Nori risipiţi 5500 ft
Punctul de rouă 34 °F
Umiditatea 44%
Precipitaţii 0.00 inch
Adâncimea zăpezii Not available.
UV 7.2 out of 12
Pollen 6.70 out of 12
Calitatea aerului Not available.
Flu Activity Regional
METAR KDTW 261653Z 36007KT 10SM SCT055 13/M02 A2992

More Conditions Fewer Conditions

The full scope of the disaster following a powerful 7.8-magnitude earthquake in Nepal may not come into view for days, but global charities are already sending emergency aid. Click to see how you can help.

10-Day Weather Forecast

Almanac

Astronomie

Apr. 26, 2015 Răsărit Apus
Timpul Actual
Crepusculul Civil
Crepusculul nautic
Răsărit Astronomic
Luna
Durata zilei lumină
Lungimea zilei
Tomorrow will be .
, % of the Moon is Illuminated

Extremele de azi

State Highs State Lows

Community

WunderPhotos

Upload Photos

1,817,058 photos uploaded!

WunderBlogs® & News

Nearby

Calitatea aerului

  Calitatea aerului Index de calitate a aerului Poluat
Not available.

Adâncimea zapezii

Station Depth Elevation

Earthquake Activity

Oraş Distance Mag. Time & Date
Minimum magnitude displayed is 2.5.

Coastal Water Temperatures

Locul Temperatura

Stations

Nearby Weather Stations

Locaţia staţiei Temp Vânt rece Punctul de rouă Umiditatea Vânt Precip. Elev Actualizare Type